sensor_id;sensor_type;location;lat;lon;timestamp;P1;durP1;ratioP1;P2;durP2;ratioP2
52208;SDS011;38507;53.132;6.394;2022-09-17T00:00:39;10.07;;;1.65;;
52208;SDS011;38507;53.132;6.394;2022-09-17T00:03:06;20.08;;;2.67;;
52208;SDS011;38507;53.132;6.394;2022-09-17T00:05:33;17.15;;;3.13;;
52208;SDS011;38507;53.132;6.394;2022-09-17T00:08:08;17.25;;;2.50;;
52208;SDS011;38507;53.132;6.394;2022-09-17T00:10:37;18.65;;;2.40;;
52208;SDS011;38507;53.132;6.394;2022-09-17T00:13:04;14.73;;;2.28;;
52208;SDS011;38507;53.132;6.394;2022-09-17T00:15:31;11.27;;;1.90;;
52208;SDS011;38507;53.132;6.394;2022-09-17T00:17:57;21.02;;;2.35;;
52208;SDS011;38507;53.132;6.394;2022-09-17T00:20:24;21.08;;;2.85;;
52208;SDS011;38507;53.132;6.394;2022-09-17T00:22:50;15.25;;;2.05;;
52208;SDS011;38507;53.132;6.394;2022-09-17T00:25:16;15.68;;;2.22;;
52208;SDS011;38507;53.132;6.394;2022-09-17T00:27:42;15.98;;;2.05;;
52208;SDS011;38507;53.132;6.394;2022-09-17T00:30:09;14.38;;;2.25;;
52208;SDS011;38507;53.132;6.394;2022-09-17T00:32:35;16.00;;;2.03;;
52208;SDS011;38507;53.132;6.394;2022-09-17T00:35:01;15.50;;;2.10;;
52208;SDS011;38507;53.132;6.394;2022-09-17T00:37:27;12.60;;;2.13;;
52208;SDS011;38507;53.132;6.394;2022-09-17T00:39:52;15.30;;;2.20;;
52208;SDS011;38507;53.132;6.394;2022-09-17T00:42:18;13.57;;;1.45;;
52208;SDS011;38507;53.132;6.394;2022-09-17T00:44:46;15.50;;;1.83;;
52208;SDS011;38507;53.132;6.394;2022-09-17T00:47:16;14.38;;;2.00;;
52208;SDS011;38507;53.132;6.394;2022-09-17T00:50:05;13.80;;;1.90;;
52208;SDS011;38507;53.132;6.394;2022-09-17T00:52:56;13.60;;;1.92;;
52208;SDS011;38507;53.132;6.394;2022-09-17T00:55:39;11.75;;;1.63;;
52208;SDS011;38507;53.132;6.394;2022-09-17T00:58:08;14.23;;;1.77;;
52208;SDS011;38507;53.132;6.394;2022-09-17T01:00:36;17.35;;;1.98;;
52208;SDS011;38507;53.132;6.394;2022-09-17T01:03:03;16.52;;;1.85;;
52208;SDS011;38507;53.132;6.394;2022-09-17T01:13:53;12.68;;;1.92;;
52208;SDS011;38507;53.132;6.394;2022-09-17T01:16:34;24.02;;;3.17;;
52208;SDS011;38507;53.132;6.394;2022-09-17T01:30:17;18.45;;;2.30;;
52208;SDS011;38507;53.132;6.394;2022-09-17T01:35:52;16.75;;;2.15;;
52208;SDS011;38507;53.132;6.394;2022-09-17T01:38:26;22.88;;;3.13;;
52208;SDS011;38507;53.132;6.394;2022-09-17T01:41:04;17.42;;;2.42;;
52208;SDS011;38507;53.132;6.394;2022-09-17T01:43:45;20.10;;;2.78;;
52208;SDS011;38507;53.132;6.394;2022-09-17T01:46:21;19.75;;;2.63;;
52208;SDS011;38507;53.132;6.394;2022-09-17T01:48:55;20.35;;;2.30;;
52208;SDS011;38507;53.132;6.394;2022-09-17T01:51:23;18.40;;;2.25;;
52208;SDS011;38507;53.132;6.394;2022-09-17T01:53:59;16.48;;;2.45;;
52208;SDS011;38507;53.132;6.394;2022-09-17T01:56:39;18.45;;;2.30;;
52208;SDS011;38507;53.132;6.394;2022-09-17T01:59:30;23.42;;;2.35;;
52208;SDS011;38507;53.132;6.394;2022-09-17T02:02:03;20.30;;;2.42;;
52208;SDS011;38507;53.132;6.394;2022-09-17T02:04:35;15.52;;;1.98;;
52208;SDS011;38507;53.132;6.394;2022-09-17T02:07:10;14.30;;;2.58;;
52208;SDS011;38507;53.132;6.394;2022-09-17T02:09:44;15.25;;;3.10;;
52208;SDS011;38507;53.132;6.394;2022-09-17T02:12:19;16.27;;;1.92;;
52208;SDS011;38507;53.132;6.394;2022-09-17T02:14:52;15.48;;;2.55;;
52208;SDS011;38507;53.132;6.394;2022-09-17T02:17:31;16.45;;;2.20;;
52208;SDS011;38507;53.132;6.394;2022-09-17T02:20:03;17.17;;;2.28;;
52208;SDS011;38507;53.132;6.394;2022-09-17T02:22:38;17.77;;;2.03;;
52208;SDS011;38507;53.132;6.394;2022-09-17T02:28:04;18.35;;;2.53;;
52208;SDS011;38507;53.132;6.394;2022-09-17T02:30:36;17.13;;;2.83;;
52208;SDS011;38507;53.132;6.394;2022-09-17T02:33:03;13.70;;;2.15;;
52208;SDS011;38507;53.132;6.394;2022-09-17T02:35:32;17.98;;;2.17;;
52208;SDS011;38507;53.132;6.394;2022-09-17T02:37:58;14.75;;;2.38;;
52208;SDS011;38507;53.132;6.394;2022-09-17T02:40:25;15.35;;;2.28;;
52208;SDS011;38507;53.132;6.394;2022-09-17T02:45:49;13.30;;;1.90;;
52208;SDS011;38507;53.132;6.394;2022-09-17T02:59:25;12.68;;;1.70;;
52208;SDS011;38507;53.132;6.394;2022-09-17T03:04:43;18.85;;;1.92;;
52208;SDS011;38507;53.132;6.394;2022-09-17T03:07:11;16.75;;;2.78;;
52208;SDS011;38507;53.132;6.394;2022-09-17T03:09:38;14.80;;;1.73;;
52208;SDS011;38507;53.132;6.394;2022-09-17T03:12:04;16.23;;;2.50;;
52208;SDS011;38507;53.132;6.394;2022-09-17T03:14:29;19.30;;;2.28;;
52208;SDS011;38507;53.132;6.394;2022-09-17T03:16:55;14.68;;;1.98;;
52208;SDS011;38507;53.132;6.394;2022-09-17T03:19:21;14.18;;;1.80;;
52208;SDS011;38507;53.132;6.394;2022-09-17T03:21:47;15.93;;;1.90;;
52208;SDS011;38507;53.132;6.394;2022-09-17T03:24:13;16.45;;;2.08;;
52208;SDS011;38507;53.132;6.394;2022-09-17T03:26:38;14.18;;;1.90;;
52208;SDS011;38507;53.132;6.394;2022-09-17T03:29:04;14.77;;;1.92;;
52208;SDS011;38507;53.132;6.394;2022-09-17T03:31:30;17.85;;;2.25;;
52208;SDS011;38507;53.132;6.394;2022-09-17T03:33:56;16.33;;;2.03;;
52208;SDS011;38507;53.132;6.394;2022-09-17T03:36:22;18.63;;;2.30;;
52208;SDS011;38507;53.132;6.394;2022-09-17T03:38:48;17.40;;;1.80;;
52208;SDS011;38507;53.132;6.394;2022-09-17T03:41:17;20.85;;;2.13;;
52208;SDS011;38507;53.132;6.394;2022-09-17T03:43:43;12.48;;;2.38;;
52208;SDS011;38507;53.132;6.394;2022-09-17T03:46:08;15.25;;;2.38;;
52208;SDS011;38507;53.132;6.394;2022-09-17T03:48:34;12.90;;;1.65;;
52208;SDS011;38507;53.132;6.394;2022-09-17T03:51:01;15.15;;;2.05;;
52208;SDS011;38507;53.132;6.394;2022-09-17T03:53:27;14.13;;;1.80;;
52208;SDS011;38507;53.132;6.394;2022-09-17T03:55:52;12.13;;;1.63;;
52208;SDS011;38507;53.132;6.394;2022-09-17T03:58:21;14.30;;;1.80;;
52208;SDS011;38507;53.132;6.394;2022-09-17T04:00:47;12.63;;;1.55;;
52208;SDS011;38507;53.132;6.394;2022-09-17T04:03:17;14.20;;;1.77;;
52208;SDS011;38507;53.132;6.394;2022-09-17T04:05:43;21.90;;;1.73;;
52208;SDS011;38507;53.132;6.394;2022-09-17T04:08:09;13.02;;;1.65;;
52208;SDS011;38507;53.132;6.394;2022-09-17T04:10:34;10.05;;;1.40;;
52208;SDS011;38507;53.132;6.394;2022-09-17T04:13:00;11.98;;;1.58;;
52208;SDS011;38507;53.132;6.394;2022-09-17T04:15:25;11.73;;;1.45;;
52208;SDS011;38507;53.132;6.394;2022-09-17T04:17:54;12.85;;;1.80;;
52208;SDS011;38507;53.132;6.394;2022-09-17T04:20:21;19.33;;;1.83;;
52208;SDS011;38507;53.132;6.394;2022-09-17T04:22:48;18.00;;;2.63;;
52208;SDS011;38507;53.132;6.394;2022-09-17T04:25:14;15.23;;;2.05;;
52208;SDS011;38507;53.132;6.394;2022-09-17T04:27:39;16.92;;;1.95;;
52208;SDS011;38507;53.132;6.394;2022-09-17T04:30:05;11.35;;;1.95;;
52208;SDS011;38507;53.132;6.394;2022-09-17T04:32:31;18.85;;;1.83;;
52208;SDS011;38507;53.132;6.394;2022-09-17T04:34:57;15.43;;;2.53;;
52208;SDS011;38507;53.132;6.394;2022-09-17T04:37:23;14.98;;;1.95;;
52208;SDS011;38507;53.132;6.394;2022-09-17T04:39:49;12.55;;;1.98;;
52208;SDS011;38507;53.132;6.394;2022-09-17T04:42:15;19.38;;;1.80;;
52208;SDS011;38507;53.132;6.394;2022-09-17T04:44:41;11.52;;;2.10;;
52208;SDS011;38507;53.132;6.394;2022-09-17T04:47:07;15.90;;;2.03;;
52208;SDS011;38507;53.132;6.394;2022-09-17T04:49:32;14.93;;;1.80;;
52208;SDS011;38507;53.132;6.394;2022-09-17T04:51:58;16.40;;;1.67;;
52208;SDS011;38507;53.132;6.394;2022-09-17T04:54:24;15.45;;;2.00;;
52208;SDS011;38507;53.132;6.394;2022-09-17T04:56:49;13.70;;;1.98;;
52208;SDS011;38507;53.132;6.394;2022-09-17T04:59:15;18.48;;;1.90;;
52208;SDS011;38507;53.132;6.394;2022-09-17T05:01:41;16.88;;;2.28;;
52208;SDS011;38507;53.132;6.394;2022-09-17T05:04:07;15.10;;;2.20;;
52208;SDS011;38507;53.132;6.394;2022-09-17T05:06:34;13.43;;;1.65;;
52208;SDS011;38507;53.132;6.394;2022-09-17T05:08:59;12.77;;;1.30;;
52208;SDS011;38507;53.132;6.394;2022-09-17T05:11:26;18.13;;;2.17;;
52208;SDS011;38507;53.132;6.394;2022-09-17T05:13:52;16.15;;;2.83;;
52208;SDS011;38507;53.132;6.394;2022-09-17T05:16:18;13.27;;;1.80;;
52208;SDS011;38507;53.132;6.394;2022-09-17T05:18:44;13.88;;;2.33;;
52208;SDS011;38507;53.132;6.394;2022-09-17T05:21:10;10.90;;;1.65;;
52208;SDS011;38507;53.132;6.394;2022-09-17T05:23:35;15.30;;;1.90;;
52208;SDS011;38507;53.132;6.394;2022-09-17T05:26:01;14.48;;;1.92;;
52208;SDS011;38507;53.132;6.394;2022-09-17T05:28:27;17.17;;;1.85;;
52208;SDS011;38507;53.132;6.394;2022-09-17T05:30:52;8.95;;;1.45;;
52208;SDS011;38507;53.132;6.394;2022-09-17T05:33:18;9.95;;;1.27;;
52208;SDS011;38507;53.132;6.394;2022-09-17T05:35:44;7.72;;;1.33;;
52208;SDS011;38507;53.132;6.394;2022-09-17T05:38:10;12.82;;;1.85;;
52208;SDS011;38507;53.132;6.394;2022-09-17T05:40:36;7.88;;;1.20;;
52208;SDS011;38507;53.132;6.394;2022-09-17T05:43:03;9.15;;;1.40;;
52208;SDS011;38507;53.132;6.394;2022-09-17T05:45:34;6.63;;;1.10;;
52208;SDS011;38507;53.132;6.394;2022-09-17T05:48:01;4.65;;;0.95;;
52208;SDS011;38507;53.132;6.394;2022-09-17T05:50:28;4.40;;;0.80;;
52208;SDS011;38507;53.132;6.394;2022-09-17T05:52:55;5.50;;;0.60;;
52208;SDS011;38507;53.132;6.394;2022-09-17T05:55:21;4.03;;;0.50;;
52208;SDS011;38507;53.132;6.394;2022-09-17T05:57:48;6.82;;;0.93;;
52208;SDS011;38507;53.132;6.394;2022-09-17T06:00:15;4.80;;;1.00;;
52208;SDS011;38507;53.132;6.394;2022-09-17T06:02:41;4.10;;;0.70;;
52208;SDS011;38507;53.132;6.394;2022-09-17T06:05:07;4.20;;;0.85;;
52208;SDS011;38507;53.132;6.394;2022-09-17T06:07:36;3.85;;;0.70;;
52208;SDS011;38507;53.132;6.394;2022-09-17T06:10:03;8.02;;;1.23;;
52208;SDS011;38507;53.132;6.394;2022-09-17T06:12:31;9.95;;;1.10;;
52208;SDS011;38507;53.132;6.394;2022-09-17T06:14:59;8.25;;;1.30;;
52208;SDS011;38507;53.132;6.394;2022-09-17T06:17:25;12.93;;;1.83;;
52208;SDS011;38507;53.132;6.394;2022-09-17T06:19:50;7.47;;;1.17;;
52208;SDS011;38507;53.132;6.394;2022-09-17T06:22:17;9.60;;;1.10;;
52208;SDS011;38507;53.132;6.394;2022-09-17T06:24:44;9.40;;;1.70;;
52208;SDS011;38507;53.132;6.394;2022-09-17T06:27:09;13.32;;;1.50;;
52208;SDS011;38507;53.132;6.394;2022-09-17T06:29:35;7.10;;;1.73;;
52208;SDS011;38507;53.132;6.394;2022-09-17T06:32:01;12.32;;;1.27;;
52208;SDS011;38507;53.132;6.394;2022-09-17T06:34:26;10.45;;;1.25;;
52208;SDS011;38507;53.132;6.394;2022-09-17T06:36:52;10.10;;;1.15;;
52208;SDS011;38507;53.132;6.394;2022-09-17T06:39:18;8.48;;;1.33;;
52208;SDS011;38507;53.132;6.394;2022-09-17T06:41:43;13.63;;;1.20;;
52208;SDS011;38507;53.132;6.394;2022-09-17T06:44:10;8.18;;;1.10;;
52208;SDS011;38507;53.132;6.394;2022-09-17T06:46:35;11.20;;;1.23;;
52208;SDS011;38507;53.132;6.394;2022-09-17T06:49:01;12.50;;;1.33;;
52208;SDS011;38507;53.132;6.394;2022-09-17T06:51:27;10.65;;;1.20;;
52208;SDS011;38507;53.132;6.394;2022-09-17T06:53:52;11.63;;;1.65;;
52208;SDS011;38507;53.132;6.394;2022-09-17T06:56:18;8.55;;;1.90;;
52208;SDS011;38507;53.132;6.394;2022-09-17T06:58:44;7.80;;;1.48;;
52208;SDS011;38507;53.132;6.394;2022-09-17T07:01:10;11.27;;;1.25;;
52208;SDS011;38507;53.132;6.394;2022-09-17T07:03:37;13.10;;;1.48;;
52208;SDS011;38507;53.132;6.394;2022-09-17T07:06:03;12.98;;;1.77;;
52208;SDS011;38507;53.132;6.394;2022-09-17T07:08:33;13.10;;;1.65;;
52208;SDS011;38507;53.132;6.394;2022-09-17T07:10:59;9.07;;;1.30;;
52208;SDS011;38507;53.132;6.394;2022-09-17T07:13:25;9.40;;;1.10;;
52208;SDS011;38507;53.132;6.394;2022-09-17T07:15:54;11.02;;;1.90;;
52208;SDS011;38507;53.132;6.394;2022-09-17T07:18:20;15.32;;;1.85;;
52208;SDS011;38507;53.132;6.394;2022-09-17T07:20:53;8.50;;;1.20;;
52208;SDS011;38507;53.132;6.394;2022-09-17T07:23:23;12.48;;;1.30;;
52208;SDS011;38507;53.132;6.394;2022-09-17T07:25:58;11.35;;;1.50;;
52208;SDS011;38507;53.132;6.394;2022-09-17T07:28:25;11.07;;;2.00;;
52208;SDS011;38507;53.132;6.394;2022-09-17T07:30:51;12.88;;;2.85;;
52208;SDS011;38507;53.132;6.394;2022-09-17T07:33:18;16.27;;;1.95;;
52208;SDS011;38507;53.132;6.394;2022-09-17T07:35:55;15.98;;;2.22;;
52208;SDS011;38507;53.132;6.394;2022-09-17T07:38:26;11.80;;;2.13;;
52208;SDS011;38507;53.132;6.394;2022-09-17T07:40:54;12.52;;;2.00;;
52208;SDS011;38507;53.132;6.394;2022-09-17T07:43:27;10.85;;;1.90;;
52208;SDS011;38507;53.132;6.394;2022-09-17T07:45:55;13.63;;;1.67;;
52208;SDS011;38507;53.132;6.394;2022-09-17T07:48:22;9.90;;;1.42;;
52208;SDS011;38507;53.132;6.394;2022-09-17T07:50:48;8.80;;;1.40;;
52208;SDS011;38507;53.132;6.394;2022-09-17T07:53:14;16.85;;;1.50;;
52208;SDS011;38507;53.132;6.394;2022-09-17T07:55:40;7.85;;;1.05;;
52208;SDS011;38507;53.132;6.394;2022-09-17T07:58:06;12.75;;;1.30;;
52208;SDS011;38507;53.132;6.394;2022-09-17T08:00:32;11.07;;;1.20;;
52208;SDS011;38507;53.132;6.394;2022-09-17T08:02:58;7.68;;;1.05;;
52208;SDS011;38507;53.132;6.394;2022-09-17T08:05:24;8.15;;;0.90;;
52208;SDS011;38507;53.132;6.394;2022-09-17T08:07:51;10.75;;;1.45;;
52208;SDS011;38507;53.132;6.394;2022-09-17T08:10:18;7.25;;;0.88;;
52208;SDS011;38507;53.132;6.394;2022-09-17T08:12:49;6.57;;;0.77;;
52208;SDS011;38507;53.132;6.394;2022-09-17T08:15:18;8.27;;;1.13;;
52208;SDS011;38507;53.132;6.394;2022-09-17T08:17:44;6.75;;;1.20;;
52208;SDS011;38507;53.132;6.394;2022-09-17T08:20:11;5.97;;;1.45;;
52208;SDS011;38507;53.132;6.394;2022-09-17T08:22:37;7.55;;;0.82;;
52208;SDS011;38507;53.132;6.394;2022-09-17T08:25:04;8.20;;;1.35;;
52208;SDS011;38507;53.132;6.394;2022-09-17T08:27:30;8.45;;;1.25;;
52208;SDS011;38507;53.132;6.394;2022-09-17T08:29:57;9.55;;;1.20;;
52208;SDS011;38507;53.132;6.394;2022-09-17T08:32:23;10.70;;;1.42;;
52208;SDS011;38507;53.132;6.394;2022-09-17T08:34:49;12.52;;;1.88;;
52208;SDS011;38507;53.132;6.394;2022-09-17T08:37:14;8.07;;;1.13;;
52208;SDS011;38507;53.132;6.394;2022-09-17T08:39:40;10.10;;;1.52;;
52208;SDS011;38507;53.132;6.394;2022-09-17T08:44:55;13.38;;;1.25;;
52208;SDS011;38507;53.132;6.394;2022-09-17T08:47:24;12.68;;;1.58;;
52208;SDS011;38507;53.132;6.394;2022-09-17T08:49:57;9.77;;;1.30;;
52208;SDS011;38507;53.132;6.394;2022-09-17T09:00:34;9.75;;;1.50;;
52208;SDS011;38507;53.132;6.394;2022-09-17T09:06:04;10.45;;;1.38;;
52208;SDS011;38507;53.132;6.394;2022-09-17T09:08:34;9.32;;;1.15;;
52208;SDS011;38507;53.132;6.394;2022-09-17T09:11:14;8.32;;;1.10;;
52208;SDS011;38507;53.132;6.394;2022-09-17T09:13:43;15.18;;;1.80;;
52208;SDS011;38507;53.132;6.394;2022-09-17T09:16:22;12.13;;;1.58;;
52208;SDS011;38507;53.132;6.394;2022-09-17T09:18:53;13.27;;;1.55;;
52208;SDS011;38507;53.132;6.394;2022-09-17T09:23:49;12.13;;;1.30;;
52208;SDS011;38507;53.132;6.394;2022-09-17T09:26:22;11.75;;;1.40;;
52208;SDS011;38507;53.132;6.394;2022-09-17T09:29:09;5.80;;;1.15;;
52208;SDS011;38507;53.132;6.394;2022-09-17T09:34:21;13.00;;;1.27;;
52208;SDS011;38507;53.132;6.394;2022-09-17T09:36:48;8.75;;;1.25;;
52208;SDS011;38507;53.132;6.394;2022-09-17T09:39:23;11.13;;;1.10;;
52208;SDS011;38507;53.132;6.394;2022-09-17T09:44:50;12.18;;;1.38;;
52208;SDS011;38507;53.132;6.394;2022-09-17T09:47:28;13.73;;;2.28;;
52208;SDS011;38507;53.132;6.394;2022-09-17T09:50:27;7.25;;;1.23;;
52208;SDS011;38507;53.132;6.394;2022-09-17T09:56:04;13.18;;;1.35;;
52208;SDS011;38507;53.132;6.394;2022-09-17T09:58:49;8.73;;;1.38;;
52208;SDS011;38507;53.132;6.394;2022-09-17T10:01:16;12.02;;;1.30;;
52208;SDS011;38507;53.132;6.394;2022-09-17T10:03:47;10.45;;;1.85;;
52208;SDS011;38507;53.132;6.394;2022-09-17T10:06:16;10.45;;;1.55;;
52208;SDS011;38507;53.132;6.394;2022-09-17T10:11:21;14.50;;;1.58;;
52208;SDS011;38507;53.132;6.394;2022-09-17T10:13:52;11.88;;;1.60;;
52208;SDS011;38507;53.132;6.394;2022-09-17T10:16:37;14.10;;;2.65;;
52208;SDS011;38507;53.132;6.394;2022-09-17T10:21:32;11.00;;;1.33;;
52208;SDS011;38507;53.132;6.394;2022-09-17T10:24:00;11.98;;;1.92;;
52208;SDS011;38507;53.132;6.394;2022-09-17T10:26:28;12.55;;;2.75;;
52208;SDS011;38507;53.132;6.394;2022-09-17T10:29:10;9.73;;;1.20;;
52208;SDS011;38507;53.132;6.394;2022-09-17T10:31:48;11.10;;;1.30;;
52208;SDS011;38507;53.132;6.394;2022-09-17T10:34:22;13.85;;;1.60;;
52208;SDS011;38507;53.132;6.394;2022-09-17T10:36:50;12.95;;;1.35;;
52208;SDS011;38507;53.132;6.394;2022-09-17T10:42:14;12.43;;;1.50;;
52208;SDS011;38507;53.132;6.394;2022-09-17T10:44:52;14.68;;;1.67;;
52208;SDS011;38507;53.132;6.394;2022-09-17T10:50:00;13.13;;;2.00;;
52208;SDS011;38507;53.132;6.394;2022-09-17T11:00:15;9.75;;;1.42;;
52208;SDS011;38507;53.132;6.394;2022-09-17T11:11:05;15.32;;;2.00;;
52208;SDS011;38507;53.132;6.394;2022-09-17T11:13:52;9.70;;;1.30;;
52208;SDS011;38507;53.132;6.394;2022-09-17T11:16:55;16.92;;;1.40;;
52208;SDS011;38507;53.132;6.394;2022-09-17T11:36:20;12.95;;;1.90;;
52208;SDS011;38507;53.132;6.394;2022-09-17T11:38:49;9.45;;;2.00;;
52208;SDS011;38507;53.132;6.394;2022-09-17T11:41:18;10.15;;;1.50;;
52208;SDS011;38507;53.132;6.394;2022-09-17T11:46:37;14.20;;;2.00;;
52208;SDS011;38507;53.132;6.394;2022-09-17T11:57:42;14.73;;;2.53;;
52208;SDS011;38507;53.132;6.394;2022-09-17T12:00:13;11.02;;;1.73;;
52208;SDS011;38507;53.132;6.394;2022-09-17T12:05:41;7.28;;;1.00;;
52208;SDS011;38507;53.132;6.394;2022-09-17T12:08:25;9.63;;;1.20;;
52208;SDS011;38507;53.132;6.394;2022-09-17T12:11:10;16.23;;;2.05;;
52208;SDS011;38507;53.132;6.394;2022-09-17T12:13:49;11.23;;;1.88;;
52208;SDS011;38507;53.132;6.394;2022-09-17T12:16:25;14.75;;;1.92;;
52208;SDS011;38507;53.132;6.394;2022-09-17T12:19:10;14.93;;;2.55;;
52208;SDS011;38507;53.132;6.394;2022-09-17T12:21:53;15.02;;;2.55;;
52208;SDS011;38507;53.132;6.394;2022-09-17T12:35:30;12.30;;;1.85;;
52208;SDS011;38507;53.132;6.394;2022-09-17T12:52:35;19.05;;;3.22;;
52208;SDS011;38507;53.132;6.394;2022-09-17T12:55:22;13.60;;;2.33;;
52208;SDS011;38507;53.132;6.394;2022-09-17T13:01:16;12.45;;;2.22;;
52208;SDS011;38507;53.132;6.394;2022-09-17T13:15:19;12.13;;;2.05;;
52208;SDS011;38507;53.132;6.394;2022-09-17T13:20:39;10.25;;;1.65;;
52208;SDS011;38507;53.132;6.394;2022-09-17T13:23:13;11.95;;;2.05;;
52208;SDS011;38507;53.132;6.394;2022-09-17T13:25:51;11.18;;;1.80;;
52208;SDS011;38507;53.132;6.394;2022-09-17T13:28:17;13.63;;;2.03;;
52208;SDS011;38507;53.132;6.394;2022-09-17T13:30:59;17.60;;;2.25;;
52208;SDS011;38507;53.132;6.394;2022-09-17T13:39:10;8.95;;;1.70;;
52208;SDS011;38507;53.132;6.394;2022-09-17T13:42:01;14.07;;;1.95;;
52208;SDS011;38507;53.132;6.394;2022-09-17T13:44:30;12.52;;;1.98;;
52208;SDS011;38507;53.132;6.394;2022-09-17T13:47:19;14.68;;;1.67;;
52208;SDS011;38507;53.132;6.394;2022-09-17T13:50:00;13.15;;;2.05;;
52208;SDS011;38507;53.132;6.394;2022-09-17T13:52:38;13.25;;;1.92;;
52208;SDS011;38507;53.132;6.394;2022-09-17T13:55:07;10.60;;;1.92;;
52208;SDS011;38507;53.132;6.394;2022-09-17T13:57:44;7.80;;;1.10;;
52208;SDS011;38507;53.132;6.394;2022-09-17T14:19:16;5.55;;;0.80;;
52208;SDS011;38507;53.132;6.394;2022-09-17T14:24:45;14.05;;;1.60;;
52208;SDS011;38507;53.132;6.394;2022-09-17T14:29:48;9.43;;;1.52;;
52208;SDS011;38507;53.132;6.394;2022-09-17T14:32:28;10.30;;;1.50;;
52208;SDS011;38507;53.132;6.394;2022-09-17T14:35:11;11.68;;;1.75;;
52208;SDS011;38507;53.132;6.394;2022-09-17T14:41:21;10.98;;;1.25;;
52208;SDS011;38507;53.132;6.394;2022-09-17T14:46:24;10.05;;;2.05;;
52208;SDS011;38507;53.132;6.394;2022-09-17T14:48:53;12.65;;;2.25;;
52208;SDS011;38507;53.132;6.394;2022-09-17T14:51:23;10.90;;;2.25;;
52208;SDS011;38507;53.132;6.394;2022-09-17T14:54:13;9.68;;;1.67;;
52208;SDS011;38507;53.132;6.394;2022-09-17T14:56:53;9.00;;;1.02;;
52208;SDS011;38507;53.132;6.394;2022-09-17T14:59:45;11.77;;;1.48;;
52208;SDS011;38507;53.132;6.394;2022-09-17T15:02:26;9.40;;;1.27;;
52208;SDS011;38507;53.132;6.394;2022-09-17T15:04:55;15.48;;;1.70;;
52208;SDS011;38507;53.132;6.394;2022-09-17T15:07:22;11.05;;;1.45;;
52208;SDS011;38507;53.132;6.394;2022-09-17T15:09:48;9.52;;;1.20;;
52208;SDS011;38507;53.132;6.394;2022-09-17T15:12:16;7.60;;;1.15;;
52208;SDS011;38507;53.132;6.394;2022-09-17T15:14:45;10.00;;;1.48;;
52208;SDS011;38507;53.132;6.394;2022-09-17T15:17:12;10.93;;;1.02;;
52208;SDS011;38507;53.132;6.394;2022-09-17T15:19:43;6.18;;;1.00;;
52208;SDS011;38507;53.132;6.394;2022-09-17T15:22:14;10.80;;;1.30;;
52208;SDS011;38507;53.132;6.394;2022-09-17T15:27:31;5.05;;;1.10;;
52208;SDS011;38507;53.132;6.394;2022-09-17T15:32:30;8.15;;;1.20;;
52208;SDS011;38507;53.132;6.394;2022-09-17T15:37:42;6.07;;;1.15;;
52208;SDS011;38507;53.132;6.394;2022-09-17T15:40:29;11.98;;;1.70;;
52208;SDS011;38507;53.132;6.394;2022-09-17T15:43:02;14.80;;;1.42;;
52208;SDS011;38507;53.132;6.394;2022-09-17T15:45:46;13.52;;;1.10;;
52208;SDS011;38507;53.132;6.394;2022-09-17T15:50:59;10.15;;;1.45;;
52208;SDS011;38507;53.132;6.394;2022-09-17T15:53:29;8.45;;;1.13;;
52208;SDS011;38507;53.132;6.394;2022-09-17T15:58:50;8.98;;;1.83;;
52208;SDS011;38507;53.132;6.394;2022-09-17T16:06:58;13.10;;;1.70;;
52208;SDS011;38507;53.132;6.394;2022-09-17T16:09:46;8.25;;;1.30;;
52208;SDS011;38507;53.132;6.394;2022-09-17T16:12:18;9.05;;;1.50;;
52208;SDS011;38507;53.132;6.394;2022-09-17T16:14:46;15.38;;;1.67;;
52208;SDS011;38507;53.132;6.394;2022-09-17T16:22:40;17.65;;;2.00;;
52208;SDS011;38507;53.132;6.394;2022-09-17T16:25:07;16.25;;;2.05;;
52208;SDS011;38507;53.132;6.394;2022-09-17T16:28:07;14.85;;;2.17;;
52208;SDS011;38507;53.132;6.394;2022-09-17T16:30:27;13.90;;;2.75;;
52208;SDS011;38507;53.132;6.394;2022-09-17T16:32:52;9.00;;;1.38;;
52208;SDS011;38507;53.132;6.394;2022-09-17T16:35:19;11.77;;;1.73;;
52208;SDS011;38507;53.132;6.394;2022-09-17T16:37:47;13.43;;;1.77;;
52208;SDS011;38507;53.132;6.394;2022-09-17T16:40:14;11.88;;;1.63;;
52208;SDS011;38507;53.132;6.394;2022-09-17T16:42:40;8.55;;;1.35;;
52208;SDS011;38507;53.132;6.394;2022-09-17T16:45:06;12.27;;;1.50;;
52208;SDS011;38507;53.132;6.394;2022-09-17T16:47:33;13.25;;;1.65;;
52208;SDS011;38507;53.132;6.394;2022-09-17T16:50:01;10.65;;;1.42;;
52208;SDS011;38507;53.132;6.394;2022-09-17T16:52:31;12.93;;;1.70;;
52208;SDS011;38507;53.132;6.394;2022-09-17T16:54:57;6.53;;;1.33;;
52208;SDS011;38507;53.132;6.394;2022-09-17T16:57:23;9.05;;;1.58;;
52208;SDS011;38507;53.132;6.394;2022-09-17T16:59:49;9.32;;;1.40;;
52208;SDS011;38507;53.132;6.394;2022-09-17T17:02:14;10.65;;;1.58;;
52208;SDS011;38507;53.132;6.394;2022-09-17T17:04:40;8.88;;;1.20;;
52208;SDS011;38507;53.132;6.394;2022-09-17T17:07:05;6.28;;;0.98;;
52208;SDS011;38507;53.132;6.394;2022-09-17T17:09:31;6.18;;;0.90;;
52208;SDS011;38507;53.132;6.394;2022-09-17T17:11:57;8.95;;;0.90;;
52208;SDS011;38507;53.132;6.394;2022-09-17T17:14:22;9.15;;;0.93;;
52208;SDS011;38507;53.132;6.394;2022-09-17T17:16:48;6.43;;;1.00;;
52208;SDS011;38507;53.132;6.394;2022-09-17T17:19:14;8.55;;;1.20;;
52208;SDS011;38507;53.132;6.394;2022-09-17T17:21:39;7.35;;;1.70;;
52208;SDS011;38507;53.132;6.394;2022-09-17T17:24:05;7.93;;;0.75;;
52208;SDS011;38507;53.132;6.394;2022-09-17T17:26:31;9.70;;;1.45;;
52208;SDS011;38507;53.132;6.394;2022-09-17T17:28:57;7.90;;;1.55;;
52208;SDS011;38507;53.132;6.394;2022-09-17T17:31:23;8.38;;;1.23;;
52208;SDS011;38507;53.132;6.394;2022-09-17T17:33:49;10.77;;;1.33;;
52208;SDS011;38507;53.132;6.394;2022-09-17T17:36:15;9.18;;;1.20;;
52208;SDS011;38507;53.132;6.394;2022-09-17T17:38:40;5.97;;;0.90;;
52208;SDS011;38507;53.132;6.394;2022-09-17T17:41:07;12.45;;;1.33;;
52208;SDS011;38507;53.132;6.394;2022-09-17T17:43:35;14.65;;;1.50;;
52208;SDS011;38507;53.132;6.394;2022-09-17T17:46:03;13.18;;;1.75;;
52208;SDS011;38507;53.132;6.394;2022-09-17T17:48:30;8.63;;;1.30;;
52208;SDS011;38507;53.132;6.394;2022-09-17T17:51:03;11.82;;;1.65;;
52208;SDS011;38507;53.132;6.394;2022-09-17T17:53:30;11.40;;;1.52;;
52208;SDS011;38507;53.132;6.394;2022-09-17T17:56:00;11.98;;;1.83;;
52208;SDS011;38507;53.132;6.394;2022-09-17T17:58:28;12.38;;;1.40;;
52208;SDS011;38507;53.132;6.394;2022-09-17T18:00:54;8.60;;;1.10;;
52208;SDS011;38507;53.132;6.394;2022-09-17T18:03:20;8.90;;;1.67;;
52208;SDS011;38507;53.132;6.394;2022-09-17T18:05:52;8.52;;;1.13;;
52208;SDS011;38507;53.132;6.394;2022-09-17T18:08:21;6.78;;;1.08;;
52208;SDS011;38507;53.132;6.394;2022-09-17T18:10:54;4.03;;;0.80;;
52208;SDS011;38507;53.132;6.394;2022-09-17T18:13:21;6.53;;;1.15;;
52208;SDS011;38507;53.132;6.394;2022-09-17T18:15:51;9.30;;;0.90;;
52208;SDS011;38507;53.132;6.394;2022-09-17T18:18:18;8.35;;;1.20;;
52208;SDS011;38507;53.132;6.394;2022-09-17T18:20:44;9.40;;;1.25;;
52208;SDS011;38507;53.132;6.394;2022-09-17T18:23:10;9.82;;;1.50;;
52208;SDS011;38507;53.132;6.394;2022-09-17T18:25:36;10.73;;;1.60;;
52208;SDS011;38507;53.132;6.394;2022-09-17T18:28:01;9.00;;;1.13;;
52208;SDS011;38507;53.132;6.394;2022-09-17T18:30:27;16.42;;;1.52;;
52208;SDS011;38507;53.132;6.394;2022-09-17T18:32:53;9.70;;;1.10;;
52208;SDS011;38507;53.132;6.394;2022-09-17T18:35:19;10.68;;;1.20;;
52208;SDS011;38507;53.132;6.394;2022-09-17T18:37:45;7.40;;;0.98;;
52208;SDS011;38507;53.132;6.394;2022-09-17T18:40:10;8.75;;;1.42;;
52208;SDS011;38507;53.132;6.394;2022-09-17T18:42:36;10.05;;;1.52;;